Station: Moruya Airport  

  Atmospheric Gas Attenuation - ITU Rec 676-11   ----------------- dB/100km -----------------
Date Time Temp RH % AH g/m3 Dew Point Wind Direction Speed kph Gust kph Barometer mB Rainfall Since 9am 24GHz 47GHz 76GHz 122GHz 134GHz 241GHz
05/05 20:50 12.9 73 8.23 8.2 6 6 1021.3 0 18.8 25.9 39.1 102.5 95.3 327.3
05/05 20:40 12.9 74 8.34 8.4 7 7 1021.2 0 19.1 26.0 39.6 103.7 96.7 332.4
05/05 20:30 12.7 75 8.35 8.4 6 9 1021.3 0 19.1 26.1 39.7 104.1 97.1 333.8
05/05 20:20 12.5 78 8.58 8.8 6 7 1021.1 0 19.6 26.5 40.7 106.8 100.4 345.4
05/05 20:10 12.6 80 8.85 9.2 7 7 1021.1 0 20.2 27.0 41.8 109.6 104.0 357.8
05/05 20:00 12.4 80 8.74 9.1 6 7 1021.1 0 19.9 26.8 41.4 108.7 102.8 353.4
05/05 19:50 12.5 80 8.8 9.1 6 7 1020.9 0 20.1 26.9 41.6 109.2 103.4 355.8
05/05 19:40 12.5 81 8.91 9.3 6 6 1020.9 0 20.3 27.1 42.1 110.4 104.9 361.0
05/05 19:30 12.4 79 8.63 8.9 6 7 1020.9 0 19.7 26.6 41.0 107.5 101.2 348.2
05/05 19:20 12.9 79 8.9 9.4 6 6 1020.7 0 20.3 26.9 41.8 109.7 104.2 358.7
05/05 19:10 12.6 77 8.52 8.7 4 6 1020.6 0 19.5 26.4 40.4 106.0 99.5 342.0
05/05 19:00 12.7 77 8.57 8.8 6 7 1020.5 0 19.6 26.4 40.6 106.4 100.0 343.9
05/05 18:50 12.9 76 8.57 8.8 6 6 1020.3 0 19.6 26.4 40.4 106.1 99.7 343.0
05/05 18:40 13.6 77 9.06 9.6 7 7 1020.1 0 20.6 27.0 42.1 110.4 105.4 362.9
05/05 18:30 13.4 74 8.6 8.9 6 7 1020.1 0 19.6 26.3 40.3 105.7 99.5 342.1
05/05 18:20 13.7 72 8.53 8.7 4 6 1019.9 0 19.4 26.1 39.9 104.5 98.1 337.5
05/05 18:10 14.2 70 8.55 8.8 0 0 1019.7 0 19.5 25.9 39.7 104.1 97.8 336.2
05/05 18:00 14.5 68 8.46 8.7 0 0 1019.7 0 19.3 25.7 39.2 102.7 96.2 330.8
05/05 17:50 15.1 64 8.26 8.3 0 0 1019.4 0 18.8 25.2 38.1 99.8 92.9 319.2
05/05 17:40 16.5 58 8.14 8.2 4 7 1019.3 0 18.5 24.6 37.0 96.8 89.7 308.3
05/05 17:30 18.5 57 9.02 9.8 9 11 1019.2 0 20.2 25.4 39.4 103.3 98.4 339.0
05/05 17:20 18.7 56 8.96 9.8 9 9 1018.9 0 20.1 25.3 39.0 102.4 97.4 335.4
05/05 17:10 18.9 54 8.75 9.4 11 13 1018.7 0 19.7 24.9 38.1 100.0 94.5 325.3
05/05 17:00 19 51 8.31 8.6 11 15 1018.6 0 18.7 24.2 36.4 95.5 88.9 305.9
05/05 16:50 19.2 49 8.08 8.2 13 13 1018.2 0 18.2 23.8 35.5 92.9 85.9 295.3
05/05 16:40 19.5 51 8.56 9.1 11 13 1018.1 0 19.2 24.4 37.1 97.3 91.4 314.6
05/05 16:30 19.9 50 8.59 9.2 13 17 1018 0 19.3 24.3 37.0 97.1 91.3 314.3
05/05 16:20 20.1 45 7.82 7.8 17 19 1017.7 0 17.6 23.2 34.1 89.4 81.8 281.1
05/05 16:10 20.4 47 8.31 8.7 13 15 1017.7 0 18.7 23.8 35.8 93.7 87.3 300.4
05/05 16:00 20.5 43 7.65 7.5 15 19 1017.7 0 17.3 22.8 33.4 87.3 79.4 272.7
05/05 15:50 20.5 45 8.01 8.2 17 20 1017.5 0 18.0 23.3 34.6 90.7 83.6 287.5
05/05 15:40 20.7 44 7.92 8 15 17 1017.4 0 17.8 23.1 34.2 89.6 82.3 283.0
05/05 15:30 20.7 45 8.1 8.4 17 20 1017.3 0 18.2 23.4 34.9 91.3 84.5 290.5
05/05 15:20 20.9 44 8.01 8.2 15 19 1017.1 0 18.0 23.2 34.5 90.2 83.2 286.0
05/05 15:10 20.9 45 8.19 8.5 17 19 1016.9 0 18.4 23.5 35.1 91.9 85.3 293.4
05/05 15:00 20.9 43 7.83 7.9 17 22 1016.9 0 17.6 22.9 33.8 88.5 81.0 278.5
05/05 14:50 21.2 43 7.97 8.1 17 19 1016.7 0 17.9 23.1 34.2 89.5 82.4 283.2
05/05 14:40 21.1 41 7.55 7.3 19 20 1016.6 0 17.0 22.5 32.7 85.6 77.6 266.4
05/05 14:30 21.7 42 8.01 8.2 17 20 1016.6 0 18.0 23.0 34.1 89.3 82.3 283.1
05/05 14:20 21.3 42 7.83 7.9 17 19 1016.4 0 17.6 22.8 33.6 88.0 80.6 277.0
05/05 14:10 21.3 44 8.2 8.6 19 20 1016.3 0 18.4 23.4 34.9 91.5 84.9 292.2
05/05 14:00 21.4 48 9 9.9 17 20 1016.4 0 20.1 24.5 37.8 99.2 94.4 325.3
05/05 13:50 21.8 47 9.02 10 17 20 1016.2 0 20.1 24.4 37.7 98.9 94.1 324.5
05/05 13:40 21.3 42 7.83 7.9 19 20 1016.2 0 17.6 22.8 33.6 88.0 80.6 277.0
05/05 13:30 21.4 43 8.06 8.3 19 20 1016.3 0 18.1 23.1 34.4 90.1 83.2 286.1
05/05 13:20 21.5 41 7.73 7.7 19 20 1016.1 0 17.4 22.6 33.2 86.8 79.2 272.2
05/05 13:10 21.6 41 7.78 7.8 17 20 1016.2 0 17.5 22.7 33.3 87.2 79.7 273.9
05/05 13:00 21.9 47 9.07 10.1 17 20 1016.4 0 20.2 24.5 37.8 99.2 94.6 326.3
05/05 12:50 21.2 41 7.6 7.4 15 17 1016.3 0 17.1 22.5 32.9 86.0 78.0 268.0
05/05 12:40 21.6 46 8.72 9.5 17 17 1016.4 0 19.5 24.0 36.7 96.2 90.8 312.7
05/05 12:30 21.3 40 7.46 7.2 17 20 1016.5 0 16.8 22.3 32.3 84.6 76.3 262.1
05/05 12:20 21.4 41 7.69 7.6 15 17 1016.4 0 17.3 22.6 33.1 86.6 78.9 271.0
05/05 12:10 21.7 36 6.87 6 13 13 1016.6 0 15.6 21.4 30.2 78.8 69.3 237.4
05/05 12:00 21.6 36 6.83 5.9 13 15 1016.7 0 15.5 21.4 30.1 78.5 69.0 236.2
05/05 11:50 21.6 37 7.02 6.3 11 13 1016.8 0 15.9 21.6 30.7 80.2 71.1 243.7
05/05 11:40 21.6 35 6.64 5.5 6 7 1016.9 0 15.1 21.1 29.4 76.8 66.8 228.8
05/05 11:30 22 35 6.79 5.8 7 13 1017.1 0 15.4 21.2 29.8 77.8 68.2 233.5
05/05 11:20 21.5 36 6.79 5.8 9 11 1017 0 15.4 21.3 30.0 78.3 68.6 234.9
05/05 11:10 21.6 35 6.64 5.5 6 9 1017.1 0 15.1 21.1 29.4 76.8 66.9 228.8
05/05 11:00 20.9 36 6.56 5.3 9 17 1017.3 0 15.0 21.2 29.4 76.8 66.6 227.7
05/05 10:50 20.8 35 6.34 4.8 15 17 1017.2 0 14.5 20.9 28.7 74.9 64.2 219.3
05/05 10:40 21 37 6.78 5.8 9 11 1017.3 0 15.4 21.4 30.1 78.7 68.9 236.0
05/05 10:30 20.5 39 6.94 6.1 9 15 1017.4 0 15.8 21.8 30.9 80.6 71.2 243.9
05/05 10:20 20.6 39 6.98 6.2 9 13 1017.2 0 15.9 21.8 31.0 80.9 71.5 245.1
05/05 10:10 20.7 42 7.56 7.3 6 7 1017.2 0 17.1 22.6 32.9 86.2 78.1 268.2
05/05 10:00 20.2 42 7.34 6.9 9 13 1017.3 0 16.6 22.4 32.4 84.7 76.0 260.9
05/05 09:50 19.8 48 8.2 8.5 7 9 1017.3 0 18.5 23.8 35.6 93.3 86.6 297.9
05/05 09:40 19.2 48 7.91 7.9 7 9 1017.2 0 17.9 23.5 34.8 91.2 83.8 287.9
05/05 09:30 18.6 49 7.8 7.7 13 19 1017.2 0 17.7 23.5 34.7 90.8 83.1 285.4
05/05 09:20 18.3 50 7.82 7.7 15 15 1017.1 0 17.7 23.6 34.9 91.3 83.6 287.2
05/05 09:10 18.2 51 7.93 7.9 11 15 1017.1 0 18.0 23.8 35.3 92.5 85.1 292.3
05/05 09:00 18.1 51 7.88 7.8 7 11 1017.4 0 17.9 23.7 35.2 92.2 84.6 290.6
05/05 08:50 17.4 53 7.85 7.7 6 9 1017.3 0.6 17.8 23.9 35.4 92.7 85.0 291.8
05/05 08:40 16.6 57 8.05 8.1 6 7 1017.3 0.6 18.3 24.4 36.5 95.6 88.3 303.5
05/05 08:30 15.7 60 8.03 8 9 15 1017.3 0.6 18.3 24.6 36.8 96.5 89.1 306.0
05/05 08:20 15.2 63 8.18 8.2 11 13 1017.2 0.6 18.6 25.0 37.6 98.6 91.5 314.6
05/05 08:10 14.2 69 8.43 8.6 11 15 1017 0.6 19.2 25.6 39.1 102.5 96.0 330.0
05/05 08:00 12.9 81 9.13 9.7 9 13 1017 0.6 20.8 27.2 42.6 111.9 107.0 368.6
05/05 07:50 11.5 87 8.99 9.4 11 13 1016.7 0.6 20.5 27.4 42.8 112.3 107.0 368.3
05/05 07:40 9.9 92 8.59 8.7 9 9 1016.6 0.6 19.8 27.2 41.9 110.0 103.7 356.3
05/05 07:30 9.2 91 8.13 7.8 7 11 1016.6 0.6 18.8 26.6 40.3 105.8 98.2 337.0
05/05 07:20 8.6 91 7.82 7.2 7 9 1016.5 0.6 18.2 26.3 39.3 103.1 94.6 324.5
05/05 07:10 8.5 91 7.77 7.1 7 7 1016.4 0.6 18.1 26.2 39.2 102.7 94.1 322.5
05/05 07:00 7.8 92 7.51 6.6 6 9 1016.4 0.6 17.5 26.0 38.4 100.7 91.3 312.8
05/05 06:50 7.5 92 7.37 6.3 4 6 1016 0.6 17.2 25.8 38.0 99.5 89.7 307.1
05/05 06:40 7.3 92 7.27 6.1 4 4 1015.8 0.6 17.0 25.7 37.6 98.6 88.5 303.0
05/05 06:30 7.3 91 7.19 5.9 6 9 1015.7 0.6 16.9 25.5 37.3 97.7 87.4 299.2
05/05 06:20 7.6 92 7.42 6.4 9 11 1015.5 0.6 17.3 25.8 38.1 99.9 90.2 309.0
05/05 06:10 8 92 7.61 6.8 9 11 1015.5 0.6 17.7 26.0 38.7 101.5 92.4 316.6
05/05 06:00 8.4 92 7.81 7.2 11 17 1015.3 0.6 18.1 26.3 39.3 103.2 94.6 324.6
05/05 05:50 8 92 7.61 6.8 6 7 1015.2 0.6 17.7 26.0 38.7 101.4 92.4 316.5
05/05 05:40 7.5 92 7.37 6.3 11 11 1015 0.6 17.2 25.8 37.9 99.4 89.6 306.9
05/05 05:30 8.1 92 7.66 6.9 6 9 1015.3 0.6 17.8 26.1 38.9 101.9 92.9 318.6
05/05 05:20 7.8 91 7.43 6.4 7 9 1015.1 0.6 17.4 25.8 38.0 99.7 90.1 308.6
05/05 05:10 8.1 91 7.58 6.7 9 11 1015 0.6 17.7 25.9 38.5 101.0 91.8 314.6
05/05 05:00 8.2 90 7.54 6.7 9 11 1015.1 0.6 17.6 25.8 38.3 100.4 91.1 312.3
05/05 04:50 7.4 87 6.92 5.4 7 7 1014.8 0.6 16.3 25.0 36.1 94.5 83.6 285.7
05/05 04:40 7.7 87 7.06 5.7 7 7 1014.7 0.6 16.6 25.2 36.5 95.7 85.1 291.2
05/05 04:30 8.2 88 7.37 6.3 9 11 1014.8 0.6 17.2 25.6 37.6 98.5 88.8 304.1
05/05 04:20 8.6 87 7.48 6.6 11 13 1014.6 0.6 17.4 25.6 37.8 99.2 89.8 307.7

Last Refresh: 05-May-2026 20:27:44

Bureau of Meteorology